createdAt,value
2022-11-14T00:03:15.878Z,13.32
2022-11-14T00:06:39.169Z,14.07
2022-11-14T00:10:02.516Z,14.65
2022-11-14T00:13:25.770Z,15.07
2022-11-14T00:16:49.151Z,14.38
2022-11-14T00:20:13.141Z,14.05
2022-11-14T00:23:36.030Z,13.95
2022-11-14T00:26:59.364Z,13.48
2022-11-14T00:30:22.805Z,12.90
2022-11-14T00:33:46.100Z,12.52
2022-11-14T00:37:09.258Z,15.23
2022-11-14T00:40:32.484Z,15.57
2022-11-14T00:43:56.162Z,14.60
2022-11-14T00:47:19.711Z,16.63
2022-11-14T00:50:43.849Z,15.52
2022-11-14T00:54:07.102Z,14.35
2022-11-14T00:57:30.249Z,15.85
2022-11-14T01:00:54.021Z,16.20
2022-11-14T01:04:17.316Z,16.67
2022-11-14T01:07:40.881Z,16.08
2022-11-14T01:11:20.155Z,13.05
2022-11-14T01:14:43.286Z,16.15
2022-11-14T01:18:06.492Z,14.15
2022-11-14T01:21:29.638Z,12.65
2022-11-14T01:24:52.989Z,11.27
2022-11-14T01:28:19.190Z,11.85
2022-11-14T01:31:42.936Z,10.88
2022-11-14T01:35:06.483Z,14.02
2022-11-14T01:38:30.026Z,11.85
2022-11-14T01:41:53.662Z,13.13
2022-11-14T01:46:00.114Z,12.25
2022-11-14T01:49:33.011Z,11.05
2022-11-14T01:52:56.481Z,11.63
2022-11-14T01:56:31.372Z,17.92
2022-11-14T01:59:59.468Z,16.20
2022-11-14T02:03:22.882Z,14.25
2022-11-14T02:06:47.360Z,14.27
2022-11-14T02:13:41.328Z,17.95
2022-11-14T02:17:28.420Z,15.88
2022-11-14T02:20:48.551Z,15.50
2022-11-14T02:24:13.405Z,16.45
2022-11-14T02:27:39.377Z,16.70
2022-11-14T02:31:02.175Z,15.13
2022-11-14T02:34:25.413Z,14.27
2022-11-14T02:37:48.596Z,14.57
2022-11-14T02:41:11.591Z,13.65
2022-11-14T02:44:35.032Z,12.65
2022-11-14T02:47:58.399Z,11.52
2022-11-14T02:51:21.910Z,13.27
2022-11-14T02:54:48.170Z,13.60
2022-11-14T02:58:13.398Z,15.82
2022-11-14T03:01:36.654Z,12.43
2022-11-14T03:04:59.961Z,14.10
2022-11-14T03:08:22.806Z,13.98
2022-11-14T03:11:46.349Z,14.63
2022-11-14T03:15:10.292Z,12.57
2022-11-14T03:18:33.145Z,13.50
2022-11-14T03:21:56.249Z,12.57
2022-11-14T03:25:19.054Z,10.68
2022-11-14T03:28:42.976Z,10.93
2022-11-14T03:32:05.996Z,10.20
2022-11-14T03:35:28.917Z,10.25
2022-11-14T03:38:52.087Z,11.90
2022-11-14T03:42:15.609Z,11.63
2022-11-14T03:45:38.609Z,12.80
2022-11-14T03:49:01.722Z,12.38
2022-11-14T03:52:26.137Z,11.88
2022-11-14T03:59:12.723Z,15.43
2022-11-14T04:02:36.246Z,14.52
2022-11-14T04:05:59.269Z,14.65
2022-11-14T04:09:22.320Z,12.88
2022-11-14T04:12:53.560Z,13.77
2022-11-14T04:16:16.892Z,12.27
2022-11-14T04:19:39.903Z,14.07
2022-11-14T04:23:03.239Z,13.18
2022-11-14T04:26:26.569Z,11.73
2022-11-14T04:29:49.858Z,12.00
2022-11-14T04:33:13.294Z,11.52
2022-11-14T04:36:36.313Z,9.05
2022-11-14T04:40:00.940Z,10.77
2022-11-14T04:43:23.965Z,14.55
2022-11-14T04:46:47.002Z,11.35
2022-11-14T04:50:10.826Z,11.82
2022-11-14T04:53:33.978Z,14.40
2022-11-14T04:56:57.008Z,11.50
2022-11-14T05:00:26.650Z,11.40
2022-11-14T05:03:50.836Z,12.38
2022-11-14T05:07:14.638Z,11.25
2022-11-14T05:14:01.362Z,10.27
2022-11-14T05:17:24.934Z,8.63
2022-11-14T05:20:48.203Z,9.20
2022-11-14T05:24:11.538Z,9.23
2022-11-14T05:27:34.776Z,9.10
2022-11-14T05:31:10.259Z,8.17
2022-11-14T05:34:33.388Z,10.07
2022-11-14T05:37:59.984Z,8.87
2022-11-14T05:41:23.232Z,8.82
2022-11-14T05:44:46.708Z,8.77
2022-11-14T05:48:09.944Z,9.38
2022-11-14T05:51:33.379Z,9.85
2022-11-14T05:54:56.896Z,10.27
2022-11-14T05:58:20.113Z,11.05
2022-11-14T06:01:43.524Z,11.35
2022-11-14T06:05:07.448Z,10.23
2022-11-14T06:08:31.889Z,10.35
2022-11-14T06:11:55.123Z,10.13
2022-11-14T06:15:18.326Z,8.50
2022-11-14T06:18:41.962Z,10.40
2022-11-14T06:22:04.951Z,8.97
2022-11-14T06:25:28.431Z,9.25
2022-11-14T06:28:53.570Z,12.25
2022-11-14T06:32:16.963Z,11.88
2022-11-14T06:35:40.087Z,12.13
2022-11-14T06:39:03.365Z,11.63
2022-11-14T06:42:26.596Z,11.75
2022-11-14T06:45:49.847Z,11.75
2022-11-14T06:49:13.215Z,11.27
2022-11-14T06:52:36.560Z,9.35
2022-11-14T06:56:03.134Z,9.27
2022-11-14T06:59:26.406Z,10.75
2022-11-14T07:02:49.678Z,10.18
2022-11-14T07:06:17.494Z,8.43
2022-11-14T07:09:40.795Z,8.90
2022-11-14T07:13:04.222Z,8.65
2022-11-14T07:16:30.865Z,7.35
2022-11-14T07:19:53.970Z,7.25
2022-11-14T07:23:22.496Z,7.20
2022-11-14T07:26:46.683Z,7.90
2022-11-14T07:30:10.308Z,9.10
2022-11-14T07:33:34.519Z,7.32
2022-11-14T07:36:57.646Z,8.30
2022-11-14T07:40:20.808Z,8.35
2022-11-14T07:43:44.971Z,8.63
2022-11-14T07:47:08.360Z,7.53
2022-11-14T07:50:31.884Z,9.10
2022-11-14T07:53:55.661Z,8.77
2022-11-14T07:57:19.254Z,9.40
2022-11-14T08:00:42.608Z,9.52
2022-11-14T08:04:05.592Z,9.80
2022-11-14T08:07:28.973Z,8.98
2022-11-14T08:10:52.087Z,8.35
2022-11-14T08:14:16.538Z,8.32
2022-11-14T08:17:40.534Z,8.80
2022-11-14T08:21:07.249Z,8.50
2022-11-14T08:24:30.624Z,8.10
2022-11-14T08:27:54.029Z,7.70
2022-11-14T08:31:17.357Z,8.57
2022-11-14T08:34:40.684Z,7.45
2022-11-14T08:38:04.097Z,8.25
2022-11-14T08:41:28.015Z,6.78
2022-11-14T08:44:52.285Z,7.68
2022-11-14T08:48:15.828Z,7.05
2022-11-14T08:51:39.004Z,7.78
2022-11-14T08:55:02.636Z,7.35
2022-11-14T08:58:32.684Z,6.93
2022-11-14T09:01:56.501Z,7.43
2022-11-14T09:05:19.560Z,6.38
2022-11-14T09:08:42.814Z,6.32
2022-11-14T09:12:06.280Z,6.88
2022-11-14T09:15:30.196Z,7.38
2022-11-14T09:18:53.634Z,7.47
2022-11-14T09:22:16.960Z,9.25
2022-11-14T09:25:42.769Z,8.70
2022-11-14T09:29:06.618Z,8.52
2022-11-14T09:32:29.847Z,6.32
2022-11-14T09:36:05.155Z,7.50
2022-11-14T09:39:28.393Z,7.13
2022-11-14T09:43:13.617Z,6.65
2022-11-14T09:47:03.208Z,7.55
2022-11-14T09:50:32.690Z,6.75
2022-11-14T09:54:26.457Z,6.43
2022-11-14T09:57:49.944Z,6.53
2022-11-14T10:01:42.840Z,7.73
2022-11-14T10:05:47.663Z,6.82
2022-11-14T10:09:37.903Z,8.83
2022-11-14T10:13:51.522Z,8.32
2022-11-14T10:17:42.873Z,9.35
2022-11-14T10:21:33.344Z,8.80
2022-11-14T10:25:50.184Z,8.48
2022-11-14T10:29:26.378Z,8.75
2022-11-14T10:33:16.987Z,8.68
2022-11-14T10:36:55.357Z,8.30
2022-11-14T10:40:34.990Z,7.80
2022-11-14T10:43:59.118Z,7.03
2022-11-14T10:47:24.229Z,7.50
2022-11-14T10:50:58.062Z,8.70
2022-11-14T10:54:41.911Z,7.65
2022-11-14T10:58:12.485Z,8.20
2022-11-14T11:01:58.009Z,10.02
2022-11-14T11:05:26.119Z,10.95
2022-11-14T11:09:07.783Z,12.68
2022-11-14T11:12:53.194Z,12.63
2022-11-14T11:16:22.611Z,12.45
2022-11-14T11:19:47.373Z,12.15
2022-11-14T11:23:10.503Z,11.05
2022-11-14T11:26:33.971Z,12.13
2022-11-14T11:30:18.834Z,11.93
2022-11-14T11:33:43.136Z,13.00
2022-11-14T11:40:49.295Z,14.38
2022-11-14T11:44:16.702Z,16.80
2022-11-14T11:47:42.949Z,18.70
2022-11-14T11:51:15.186Z,16.90
2022-11-14T11:55:13.218Z,17.58
2022-11-14T11:58:52.096Z,19.48
2022-11-14T12:02:27.281Z,17.75
2022-11-14T12:06:08.776Z,19.30
2022-11-14T12:10:09.421Z,17.02
2022-11-14T12:14:06.840Z,14.60
2022-11-14T12:18:18.090Z,17.65
2022-11-14T12:22:08.546Z,14.60
2022-11-14T12:25:46.130Z,17.05
2022-11-14T12:29:34.672Z,15.93
2022-11-14T12:33:05.510Z,14.43
2022-11-14T12:36:34.945Z,13.80
2022-11-14T12:40:07.657Z,12.55
2022-11-14T12:43:40.036Z,15.82
2022-11-14T12:47:06.427Z,14.45
2022-11-14T12:50:40.947Z,14.25
2022-11-14T12:58:01.500Z,14.07
2022-11-14T13:01:38.816Z,11.88
2022-11-14T13:05:46.673Z,12.32
2022-11-14T13:09:54.195Z,11.60
2022-11-14T13:13:36.586Z,11.13
2022-11-14T13:17:34.967Z,11.90
2022-11-14T13:21:35.543Z,11.25
2022-11-14T13:24:59.042Z,8.88
2022-11-14T13:28:37.559Z,8.30
2022-11-14T13:32:00.901Z,7.72
2022-11-14T13:35:44.209Z,6.60
2022-11-14T13:39:42.404Z,7.07
2022-11-14T13:43:24.102Z,8.82
2022-11-14T13:47:47.399Z,11.15
2022-11-14T13:51:41.558Z,9.15
2022-11-14T13:55:00.566Z,9.32
2022-11-14T13:59:00.027Z,10.10
2022-11-14T14:02:53.802Z,12.40
2022-11-14T14:06:43.685Z,9.77
2022-11-14T14:10:40.569Z,8.10
2022-11-14T14:14:32.185Z,10.52
2022-11-14T14:18:03.827Z,10.05
2022-11-14T14:21:52.366Z,9.27
2022-11-14T14:25:41.146Z,11.10
2022-11-14T14:30:02.266Z,8.48
2022-11-14T14:33:25.369Z,9.65
2022-11-14T14:36:52.243Z,8.40
2022-11-14T14:40:35.826Z,8.13
2022-11-14T14:44:00.158Z,8.52
2022-11-14T14:50:58.773Z,7.75
2022-11-14T14:54:29.476Z,6.43
2022-11-14T14:57:52.726Z,8.15
2022-11-14T15:01:23.646Z,6.73
2022-11-14T15:04:46.910Z,6.03
2022-11-14T15:08:16.440Z,7.25
2022-11-14T15:11:46.397Z,6.95
2022-11-14T15:15:22.083Z,7.63
2022-11-14T15:18:45.474Z,6.50
2022-11-14T15:22:14.880Z,5.45
2022-11-14T15:25:38.479Z,5.15
2022-11-14T15:29:23.941Z,5.63
2022-11-14T15:32:53.760Z,8.48
2022-11-14T15:36:17.893Z,9.35
2022-11-14T15:39:45.442Z,9.65
2022-11-14T15:43:42.996Z,8.05
2022-11-14T15:47:36.643Z,6.78
2022-11-14T15:50:59.652Z,7.03
2022-11-14T15:54:31.460Z,6.75
2022-11-14T15:58:20.989Z,7.97
2022-11-14T16:01:38.194Z,6.85
2022-11-14T16:05:05.006Z,6.57
2022-11-14T16:08:29.256Z,9.45
2022-11-14T16:11:52.663Z,7.75
2022-11-14T16:15:17.501Z,6.93
2022-11-14T16:18:41.321Z,7.25
2022-11-14T16:22:04.449Z,7.38
2022-11-14T16:25:30.353Z,7.50
2022-11-14T16:28:53.735Z,6.10
2022-11-14T16:32:16.815Z,8.98
2022-11-14T16:35:40.831Z,11.10
2022-11-14T16:39:06.101Z,8.23
2022-11-14T16:42:29.467Z,6.90
2022-11-14T16:45:53.084Z,6.97
2022-11-14T16:49:17.665Z,6.95
2022-11-14T16:56:04.776Z,6.03
2022-11-14T16:59:28.360Z,6.72
2022-11-14T17:02:51.560Z,7.00
2022-11-14T17:06:14.930Z,8.73
2022-11-14T17:09:38.902Z,9.25
2022-11-14T17:13:02.143Z,7.50
2022-11-14T17:16:25.561Z,7.95
2022-11-14T17:19:49.518Z,6.90
2022-11-14T17:23:13.412Z,7.60
2022-11-14T17:26:37.085Z,6.45
2022-11-14T17:30:00.436Z,5.80
2022-11-14T17:33:23.666Z,5.80
2022-11-14T17:36:46.983Z,5.43
2022-11-14T17:40:15.347Z,5.15
2022-11-14T17:43:40.301Z,5.22
2022-11-14T17:47:04.028Z,5.10
2022-11-14T17:50:27.514Z,4.80
2022-11-14T17:53:50.907Z,5.20
2022-11-14T17:57:14.179Z,5.68
2022-11-14T18:00:37.572Z,5.40
2022-11-14T18:04:05.785Z,5.17
2022-11-14T18:07:30.564Z,5.82
2022-11-14T18:10:55.099Z,5.47
2022-11-14T18:14:18.769Z,5.88
2022-11-14T18:17:42.292Z,5.43
2022-11-14T18:21:18.391Z,5.07
2022-11-14T18:24:47.158Z,5.13
2022-11-14T18:28:10.238Z,5.03
2022-11-14T18:31:33.593Z,5.20
2022-11-14T18:34:57.039Z,5.78
2022-11-14T18:38:20.368Z,5.65
2022-11-14T18:41:43.663Z,5.72
2022-11-14T18:45:07.469Z,5.95
2022-11-14T18:48:30.668Z,5.53
2022-11-14T18:51:55.803Z,5.70
2022-11-14T18:55:19.336Z,6.20
2022-11-14T18:58:44.579Z,5.15
2022-11-14T19:02:09.108Z,5.38
2022-11-14T19:05:36.138Z,5.55
2022-11-14T19:09:11.112Z,4.80
2022-11-14T19:12:34.466Z,4.85
2022-11-14T19:16:05.334Z,5.03
2022-11-14T19:19:28.746Z,5.50
2022-11-14T19:22:52.214Z,6.35
2022-11-14T19:26:15.546Z,6.20
2022-11-14T19:29:39.125Z,6.00
2022-11-14T19:33:04.761Z,6.38
2022-11-14T19:36:53.154Z,5.85
2022-11-14T19:40:12.706Z,6.07
2022-11-14T19:43:38.239Z,6.63
2022-11-14T19:47:01.411Z,5.90
2022-11-14T19:50:25.739Z,5.67
2022-11-14T19:53:49.375Z,5.53
2022-11-14T19:57:12.527Z,5.30
2022-11-14T20:00:35.688Z,4.85
2022-11-14T20:04:01.796Z,4.78
2022-11-14T20:07:25.551Z,4.50
2022-11-14T20:11:06.055Z,5.00
2022-11-14T20:14:29.424Z,4.90
2022-11-14T20:17:52.686Z,5.07
2022-11-14T20:21:19.071Z,5.53
2022-11-14T20:24:42.674Z,4.47
2022-11-14T20:28:08.006Z,4.68
2022-11-14T20:31:31.750Z,4.90
2022-11-14T20:34:54.775Z,5.03
2022-11-14T20:38:17.713Z,4.60
2022-11-14T20:41:40.901Z,5.18
2022-11-14T20:45:04.524Z,4.20
2022-11-14T20:48:29.757Z,4.75
2022-11-14T20:51:52.696Z,4.75
2022-11-14T20:55:16.292Z,5.28
2022-11-14T20:58:44.496Z,4.25
2022-11-14T21:02:11.451Z,4.55
2022-11-14T21:05:39.826Z,4.60
2022-11-14T21:09:03.977Z,4.25
2022-11-14T21:12:27.440Z,4.50
2022-11-14T21:15:50.813Z,4.68
2022-11-14T21:19:14.444Z,5.00
2022-11-14T21:22:37.913Z,4.27
2022-11-14T21:26:12.391Z,4.30
2022-11-14T21:29:35.266Z,4.03
2022-11-14T21:32:58.512Z,4.07
2022-11-14T21:40:05.445Z,4.78
2022-11-14T21:43:29.321Z,5.18
2022-11-14T21:46:53.467Z,4.50
2022-11-14T21:50:17.036Z,4.88
2022-11-14T21:53:42.476Z,4.60
2022-11-14T21:57:09.951Z,4.88
2022-11-14T22:00:33.643Z,4.88
2022-11-14T22:04:14.970Z,4.85
2022-11-14T22:07:41.946Z,5.20
2022-11-14T22:11:05.449Z,5.15
2022-11-14T22:14:29.505Z,5.10
2022-11-14T22:17:54.613Z,4.32
2022-11-14T22:21:18.272Z,4.88
2022-11-14T22:24:41.578Z,4.67
2022-11-14T22:28:05.289Z,4.85
2022-11-14T22:31:28.822Z,4.00
2022-11-14T22:34:51.940Z,5.22
2022-11-14T22:38:15.756Z,4.68
2022-11-14T22:41:40.004Z,4.97
2022-11-14T22:45:03.075Z,4.43
2022-11-14T22:48:30.055Z,4.70
2022-11-14T22:51:53.611Z,4.30
2022-11-14T22:55:18.180Z,4.72
2022-11-14T22:58:44.000Z,5.03
2022-11-14T23:02:07.623Z,4.57
2022-11-14T23:05:36.619Z,4.82
2022-11-14T23:09:02.389Z,4.28
2022-11-14T23:12:25.704Z,4.47
2022-11-14T23:15:48.916Z,4.95
2022-11-14T23:19:12.310Z,4.88
2022-11-14T23:22:36.001Z,4.40
2022-11-14T23:26:09.900Z,6.40
2022-11-14T23:29:33.435Z,4.85
2022-11-14T23:32:57.067Z,4.73
2022-11-14T23:36:21.009Z,4.75
2022-11-14T23:39:44.053Z,4.65
2022-11-14T23:43:07.342Z,4.28
2022-11-14T23:46:30.646Z,4.78
2022-11-14T23:49:53.793Z,4.88
2022-11-14T23:53:17.273Z,4.90
2022-11-14T23:56:42.667Z,4.35
